Time;durP1;ratioP1;P1;durP2;ratioP2;P2;SDS_P1;SDS_P2;PMS_P1;PMS_P2;Temp;Humidity;BMP_temperature;BMP_pressure;BME280_temperature;BME280_humidity;BME280_pressure;Samples;Min_cycle;Max_cycle;Signal;HPM_P1;HPM_P2
2022/03/04 10:11:34;;;;;;;37.07;33.60;;;16.70;44.40;;;;;;5148653;27;20543;-74
2022/03/04 10:14:01;;;;;;;35.50;32.37;;;19.80;40.40;;;;;;5148883;27;20803;-74
2022/03/04 10:16:30;;;;;;;33.43;30.73;;;20.00;39.50;;;;;;5148899;27;20532;-75
2022/03/04 10:19:08;;;;;;;36.03;33.03;;;20.50;38.40;;;;;;5148485;27;20692;-75
2022/03/04 10:21:49;;;;;;;34.40;31.30;;;20.20;37.70;;;;;;5148960;27;20454;-74
2022/03/04 10:24:18;;;;;;;34.70;31.70;;;21.10;36.60;;;;;;5148892;27;20452;-75
2022/03/04 10:26:46;;;;;;;32.23;29.73;;;21.00;35.40;;;;;;5148845;27;20445;-75
2022/03/04 10:29:21;;;;;;;37.30;34.13;;;20.70;35.80;;;;;;5148461;27;20571;-75
2022/03/04 10:32:10;;;;;;;34.27;31.13;;;20.50;35.90;;;;;;5149005;27;20924;-75
2022/03/04 10:34:55;;;;;;;35.63;32.43;;;20.80;35.00;;;;;;5148652;27;20445;-76
2022/03/04 10:37:26;;;;;;;34.60;31.80;;;20.40;34.60;;;;;;5148445;27;20451;-75
2022/03/04 10:40:01;;;;;;;33.93;31.13;;;20.10;34.40;;;;;;5148651;27;20436;-74
2022/03/04 10:42:51;;;;;;;33.03;30.43;;;20.30;35.50;;;;;;5148498;27;20646;-75
2022/03/04 10:45:21;;;;;;;34.50;31.63;;;20.70;34.90;;;;;;5148736;27;20435;-75
2022/03/04 10:47:51;;;;;;;35.73;32.90;;;21.60;33.90;;;;;;5148678;27;20446;-74
2022/03/04 10:50:20;;;;;;;36.17;33.30;;;22.90;32.30;;;;;;5148562;27;20489;-75
2022/03/04 10:52:52;;;;;;;34.60;31.80;;;23.40;30.80;;;;;;5148491;27;20452;-75
2022/03/04 10:55:30;;;;;;;34.20;31.23;;;23.30;30.40;;;;;;5148581;27;20814;-75
2022/03/04 10:57:58;;;;;;;33.90;31.20;;;23.10;30.80;;;;;;5148501;27;20856;-75
2022/03/04 11:00:26;;;;;;;33.90;31.20;;;22.10;31.50;;;;;;5148371;27;20988;-75
2022/03/04 11:02:54;;;;;;;33.47;30.97;;;21.50;31.80;;;;;;5148271;27;20466;-75
2022/03/04 11:05:21;;;;;;;37.97;34.80;;;21.60;32.30;;;;;;5148544;27;20451;-75
2022/03/04 11:07:48;;;;;;;36.60;32.97;;;21.70;32.40;;;;;;5148207;27;20448;-74
2022/03/04 11:10:15;;;;;;;35.73;32.73;;;21.80;32.00;;;;;;5147015;27;20979;-74
2022/03/04 11:12:44;;;;;;;34.23;31.50;;;20.80;32.00;;;;;;5133733;27;20502;-75
2022/03/04 11:15:13;;;;;;;32.23;29.67;;;21.00;32.00;;;;;;5134103;27;20865;-75
2022/03/04 11:17:41;;;;;;;34.40;31.40;;;20.90;32.30;;;;;;5133945;27;20449;-75
2022/03/04 11:20:10;;;;;;;35.40;32.17;;;20.80;32.10;;;;;;5134195;27;20445;-76
2022/03/04 11:22:40;;;;;;;35.40;32.50;;;20.30;32.20;;;;;;5134177;27;21052;-74
2022/03/04 11:25:10;;;;;;;34.93;31.93;;;20.10;31.90;;;;;;5134419;27;20871;-74
2022/03/04 11:27:42;;;;;;;33.97;31.20;;;20.10;32.50;;;;;;5133888;27;20809;-74
2022/03/04 11:30:24;;;;;;;33.33;30.73;;;20.80;31.90;;;;;;5133722;27;20506;-74
2022/03/04 11:33:04;;;;;;;33.90;31.10;;;19.70;32.40;;;;;;5133735;27;20944;-75
2022/03/04 11:35:53;;;;;;;34.70;31.70;;;19.70;32.30;;;;;;5133904;27;20551;-74
2022/03/04 11:39:08;;;;;;;33.53;30.70;;;19.40;33.00;;;;;;5107990;27;20446;-74
2022/03/04 11:42:03;;;;;;;34.30;31.20;;;19.60;32.80;;;;;;5133996;27;20480;-75
2022/03/04 11:44:29;;;;;;;35.00;31.80;;;20.50;31.60;;;;;;5133552;27;20489;-75
2022/03/04 11:47:01;;;;;;;33.97;31.40;;;20.90;31.30;;;;;;5133385;27;20458;-75
2022/03/04 11:49:35;;;;;;;33.07;30.17;;;21.30;31.10;;;;;;5133225;27;21035;-74
2022/03/04 11:52:24;;;;;;;31.40;29.00;;;20.10;29.70;;;;;;5133410;27;20441;-75
2022/03/04 11:55:20;;;;;;;30.67;28.07;;;19.10;30.90;;;;;;5133735;27;20447;-74
2022/03/04 11:57:48;;;;;;;30.67;28.00;;;19.10;31.50;;;;;;5133475;27;20441;-75
2022/03/04 12:00:29;;;;;;;30.97;28.53;;;19.50;30.10;;;;;;5133149;27;20443;-74
2022/03/04 12:02:57;;;;;;;29.07;26.67;;;18.30;30.30;;;;;;5133036;27;20467;-73
2022/03/04 12:05:32;;;;;;;29.70;27.40;;;17.90;30.80;;;;;;5133074;27;20807;-74
2022/03/04 12:08:10;;;;;;;29.80;27.40;;;17.40;31.00;;;;;;5133074;27;20461;-75
2022/03/04 12:10:42;;;;;;;29.90;27.50;;;17.10;31.20;;;;;;5132896;27;20491;-75
2022/03/04 12:13:12;;;;;;;29.63;26.93;;;16.30;32.50;;;;;;5132888;27;20444;-74
2022/03/04 12:15:41;;;;;;;29.50;27.10;;;16.60;32.50;;;;;;5132962;27;20452;-75
2022/03/04 12:18:10;;;;;;;27.80;25.60;;;17.40;32.00;;;;;;5133156;27;20810;-74
2022/03/04 12:21:14;;;;;;;28.73;26.50;;;18.90;30.60;;;;;;5132939;27;20452;-75
2022/03/04 12:23:53;;;;;;;26.27;24.27;;;19.20;29.40;;;;;;5131657;27;20896;-75
2022/03/04 12:26:23;;;;;;;25.60;23.70;;;18.60;28.60;;;;;;5133212;27;20443;-74
2022/03/04 12:28:52;;;;;;;26.40;24.20;;;18.10;28.40;;;;;;5132818;27;20807;-73
2022/03/04 12:31:26;;;;;;;25.40;23.40;;;17.50;28.90;;;;;;5132813;27;20495;-74
2022/03/04 12:33:57;;;;;;;23.87;22.07;;;16.60;29.70;;;;;;5132551;27;20485;-74
2022/03/04 12:36:27;;;;;;;24.27;22.47;;;17.30;29.80;;;;;;5132400;27;20460;-74
2022/03/04 12:38:56;;;;;;;26.60;23.93;;;18.00;28.80;;;;;;5132359;27;20453;-75
2022/03/04 12:41:25;;;;;;;25.67;23.87;;;18.00;28.70;;;;;;5132396;27;20964;-74
2022/03/04 12:43:54;;;;;;;25.40;23.50;;;17.90;29.00;;;;;;5132394;27;20442;-74
2022/03/04 12:46:22;;;;;;;27.23;24.93;;;18.50;28.80;;;;;;5132472;27;20811;-76
2022/03/04 12:48:50;;;;;;;27.30;24.97;;;18.50;28.50;;;;;;5132637;27;20446;-74
2022/03/04 12:51:28;;;;;;;24.10;22.30;;;18.30;28.50;;;;;;5132503;27;20497;-74
2022/03/04 12:53:57;;;;;;;23.07;21.20;;;17.00;28.20;;;;;;5132253;27;20828;-73
2022/03/04 12:56:24;;;;;;;23.30;21.40;;;16.20;28.30;;;;;;5132134;27;20446;-73
2022/03/04 12:58:52;;;;;;;24.80;22.60;;;16.60;29.00;;;;;;5132245;27;20459;-74
2022/03/04 13:01:21;;;;;;;25.57;23.50;;;16.60;29.20;;;;;;5132317;27;20456;-72
2022/03/04 13:03:50;;;;;;;23.50;21.70;;;16.70;29.40;;;;;;5132137;27;20447;-74
2022/03/04 13:06:17;;;;;;;24.83;22.73;;;16.60;29.20;;;;;;5131900;27;20452;-73
2022/03/04 13:08:56;;;;;;;25.97;23.90;;;16.70;29.80;;;;;;5131799;27;20452;-73
2022/03/04 13:11:26;;;;;;;24.83;22.83;;;16.80;29.80;;;;;;5131641;27;20497;-74
2022/03/04 13:13:59;;;;;;;24.53;22.43;;;16.40;29.30;;;;;;5131685;27;20463;-75
2022/03/04 13:16:31;;;;;;;26.63;24.50;;;16.90;29.50;;;;;;5131670;27;20832;-74
2022/03/04 13:19:00;;;;;;;24.77;22.67;;;17.00;29.30;;;;;;5131622;27;20515;-73
2022/03/04 13:21:42;;;;;;;24.37;22.50;;;17.60;29.40;;;;;;5131643;27;20452;-75
2022/03/04 13:24:16;;;;;;;22.97;21.27;;;17.50;29.50;;;;;;5131851;27;20445;-74
2022/03/04 13:26:54;;;;;;;23.07;21.37;;;17.10;28.70;;;;;;5131584;27;20461;-74
2022/03/04 13:29:22;;;;;;;25.37;23.17;;;16.30;28.60;;;;;;5131691;27;20441;-74
2022/03/04 13:31:50;;;;;;;23.00;21.30;;;16.20;29.80;;;;;;5131373;27;20489;-74
2022/03/04 13:34:17;;;;;;;23.47;21.53;;;15.60;29.70;;;;;;5131246;27;20448;-75
2022/03/04 13:36:48;;;;;;;24.50;22.63;;;15.70;30.00;;;;;;5131375;27;20461;-74
2022/03/04 13:39:21;;;;;;;25.63;23.43;;;15.60;30.30;;;;;;5131288;27;20820;-74
2022/03/04 13:41:49;;;;;;;22.83;21.00;;;15.90;30.00;;;;;;5131455;27;20449;-76
2022/03/04 13:44:17;;;;;;;21.57;19.97;;;15.40;29.90;;;;;;5131390;27;20441;-74
2022/03/04 13:47:04;;;;;;;24.80;22.80;;;15.10;30.00;;;;;;5131321;27;20924;-75
2022/03/04 13:49:46;;;;;;;22.90;20.80;;;14.90;30.10;;;;;;5131635;27;20448;-74
2022/03/04 13:52:13;;;;;;;24.03;21.97;;;14.20;30.50;;;;;;5131212;27;20440;-74
2022/03/04 13:54:49;;;;;;;23.83;21.73;;;12.90;32.20;;;;;;5131083;27;20813;-74
2022/03/04 13:57:34;;;;;;;23.67;21.37;;;11.60;34.10;;;;;;5131268;27;20441;-74
2022/03/04 14:00:08;;;;;;;23.63;21.53;;;11.20;34.90;;;;;;5131247;27;20447;-76
2022/03/04 14:02:40;;;;;;;21.67;19.87;;;10.70;35.20;;;;;;5131390;27;20468;-76
2022/03/04 14:05:08;;;;;;;22.30;20.40;;;10.60;36.00;;;;;;5130954;27;20455;-74
2022/03/04 14:07:45;;;;;;;23.87;21.87;;;10.40;36.20;;;;;;5137224;27;20433;-73
2022/03/04 14:10:16;;;;;;;23.70;21.33;;;10.30;36.70;;;;;;5146556;27;20587;-74
2022/03/04 14:12:44;;;;;;;22.50;20.70;;;10.30;37.10;;;;;;5131547;27;20838;-74
2022/03/04 14:15:11;;;;;;;22.07;20.03;;;10.30;37.40;;;;;;5130826;27;20452;-75
2022/03/04 14:17:53;;;;;;;22.47;20.37;;;10.30;37.40;;;;;;5131054;27;20449;-75
2022/03/04 14:20:20;;;;;;;23.07;20.93;;;10.30;37.10;;;;;;5131213;27;20445;-74
2022/03/04 14:22:46;;;;;;;23.80;21.70;;;10.30;37.30;;;;;;5131102;27;20448;-75
2022/03/04 14:25:15;;;;;;;22.13;20.23;;;10.30;37.40;;;;;;5130982;27;20814;-75
2022/03/04 14:27:44;;;;;;;23.27;21.43;;;10.30;37.40;;;;;;5130770;27;20532;-75
2022/03/04 14:30:12;;;;;;;21.40;19.47;;;10.30;37.50;;;;;;5130558;27;20460;-74
2022/03/04 14:32:39;;;;;;;24.50;22.30;;;10.30;37.90;;;;;;5130883;27;20468;-74
2022/03/04 14:35:07;;;;;;;20.80;19.03;;;10.20;37.10;;;;;;5130920;27;20449;-75
2022/03/04 14:37:34;;;;;;;22.53;20.60;;;10.20;37.20;;;;;;5131223;27;20506;-74
2022/03/04 14:40:01;;;;;;;22.50;20.60;;;10.20;37.40;;;;;;5130824;27;20931;-76
2022/03/04 14:42:29;;;;;;;21.80;19.80;;;10.10;37.60;;;;;;5130725;27;20448;-75
2022/03/04 14:44:55;;;;;;;20.97;19.10;;;10.00;37.40;;;;;;5130731;27;20456;-75
2022/03/04 14:47:22;;;;;;;21.80;19.80;;;10.00;36.90;;;;;;5133707;27;20444;-74
2022/03/04 14:49:49;;;;;;;19.20;17.70;;;9.90;37.60;;;;;;5134753;27;20445;-75
2022/03/04 14:52:15;;;;;;;20.70;18.90;;;9.80;37.50;;;;;;5134415;27;20488;-75
2022/03/04 14:54:42;;;;;;;22.57;20.67;;;9.80;37.30;;;;;;5134522;27;20449;-74
2022/03/04 14:57:11;;;;;;;21.10;19.40;;;9.80;37.80;;;;;;5134532;27;20654;-74
2022/03/04 14:59:40;;;;;;;19.70;18.20;;;9.70;37.70;;;;;;5134532;27;20484;-75
2022/03/04 15:02:07;;;;;;;19.43;17.83;;;9.60;37.70;;;;;;5134346;27;20994;-75
2022/03/04 15:04:34;;;;;;;21.40;19.50;;;9.70;38.50;;;;;;5134523;27;20480;-75
2022/03/04 15:07:01;;;;;;;21.17;19.37;;;9.80;38.30;;;;;;5134143;27;20439;-75
2022/03/04 15:09:27;;;;;;;21.83;20.00;;;9.80;38.10;;;;;;5133986;27;20477;-75
2022/03/04 15:11:54;;;;;;;19.60;17.90;;;9.80;39.00;;;;;;5134095;27;21110;-74
2022/03/04 15:14:21;;;;;;;20.90;18.90;;;9.80;39.30;;;;;;5134343;27;20863;-74
2022/03/04 15:16:49;;;;;;;22.63;20.27;;;9.90;39.40;;;;;;5134173;27;20452;-75
2022/03/04 15:19:15;;;;;;;20.00;18.20;;;9.90;39.50;;;;;;5133870;27;20440;-75
2022/03/04 15:21:44;;;;;;;20.13;18.40;;;9.90;39.20;;;;;;5134174;27;20441;-74
2022/03/04 15:24:11;;;;;;;20.87;18.97;;;9.80;38.70;;;;;;5133926;27;21035;-75
2022/03/04 15:26:39;;;;;;;19.67;17.97;;;9.70;38.60;;;;;;5133866;27;20444;-74
2022/03/04 15:29:07;;;;;;;20.80;19.03;;;9.70;38.90;;;;;;5133828;27;20883;-74
2022/03/04 15:31:34;;;;;;;19.73;18.03;;;9.60;39.10;;;;;;5133779;27;20491;-75
2022/03/04 15:34:02;;;;;;;19.97;18.33;;;9.60;39.30;;;;;;5133907;27;20441;-76
2022/03/04 15:36:29;;;;;;;20.07;18.37;;;9.50;39.30;;;;;;5133537;27;20452;-75
2022/03/04 15:38:55;;;;;;;20.00;18.30;;;9.60;39.50;;;;;;5133491;27;20928;-75
2022/03/04 15:41:22;;;;;;;18.03;16.63;;;9.60;38.50;;;;;;5133530;27;20468;-75
2022/03/04 15:43:49;;;;;;;18.43;16.93;;;9.50;37.80;;;;;;5133687;27;20455;-75
2022/03/04 15:46:15;;;;;;;20.17;18.47;;;9.40;37.60;;;;;;5133543;27;20841;-74
2022/03/04 15:48:42;;;;;;;18.90;17.37;;;9.40;38.20;;;;;;5133321;27;20998;-74
2022/03/04 15:51:10;;;;;;;19.43;17.80;;;9.40;38.50;;;;;;5133268;27;20468;-74
2022/03/04 15:53:37;;;;;;;22.30;20.27;;;9.30;38.90;;;;;;5133278;27;20445;-74
2022/03/04 15:56:04;;;;;;;19.13;17.53;;;9.30;39.80;;;;;;5133349;27;20453;-75
2022/03/04 15:58:31;;;;;;;21.33;19.33;;;9.30;40.50;;;;;;5133108;27;20491;-75
2022/03/04 16:00:57;;;;;;;19.87;18.23;;;9.20;41.50;;;;;;5132929;27;20984;-75
2022/03/04 16:03:24;;;;;;;22.43;20.50;;;9.20;41.40;;;;;;5133181;27;20449;-76
2022/03/04 16:05:51;;;;;;;20.57;18.90;;;9.10;41.70;;;;;;5133445;27;20449;-74
2022/03/04 16:08:20;;;;;;;19.63;18.00;;;9.10;41.80;;;;;;5133234;27;20822;-73
2022/03/04 16:10:46;;;;;;;20.60;18.67;;;9.10;42.50;;;;;;5132912;27;20483;-76
2022/03/04 16:13:19;;;;;;;21.23;19.43;;;9.00;42.60;;;;;;5133109;27;20453;-75
2022/03/04 16:15:46;;;;;;;19.00;17.27;;;8.90;42.20;;;;;;5132960;27;20810;-75
2022/03/04 16:18:12;;;;;;;19.77;17.87;;;8.90;42.60;;;;;;5132729;27;20650;-75
2022/03/04 16:20:39;;;;;;;19.63;17.73;;;8.80;42.70;;;;;;5132847;27;20823;-76
2022/03/04 16:23:06;;;;;;;19.67;17.97;;;8.80;43.10;;;;;;5132924;27;20445;-75
2022/03/04 16:25:34;;;;;;;19.50;17.83;;;8.70;43.60;;;;;;5132986;27;20467;-75
2022/03/04 16:28:01;;;;;;;18.70;17.00;;;8.70;43.80;;;;;;5132776;27;20486;-75
2022/03/04 16:30:27;;;;;;;20.00;18.33;;;8.70;43.90;;;;;;5132579;27;20444;-76
2022/03/04 16:32:54;;;;;;;19.80;18.10;;;8.60;43.70;;;;;;5132444;27;20480;-76
2022/03/04 16:35:21;;;;;;;20.23;18.23;;;8.50;43.70;;;;;;5132869;27;20483;-75
2022/03/04 16:37:48;;;;;;;19.10;17.40;;;8.50;43.70;;;;;;5132594;27;20445;-75
2022/03/04 16:40:14;;;;;;;19.63;17.77;;;8.40;44.20;;;;;;5132220;27;20452;-75
2022/03/04 16:42:42;;;;;;;18.37;16.67;;;8.30;44.40;;;;;;5132086;27;20437;-76
2022/03/04 16:45:10;;;;;;;19.47;17.57;;;8.20;44.70;;;;;;5132249;27;20452;-76
2022/03/04 16:47:37;;;;;;;18.17;16.63;;;8.20;45.20;;;;;;5132291;27;20456;-76
2022/03/04 16:50:04;;;;;;;18.43;16.77;;;8.10;45.80;;;;;;5132573;27;20455;-75
2022/03/04 16:52:31;;;;;;;18.67;16.87;;;8.00;46.50;;;;;;5132174;27;20484;-75
2022/03/04 16:54:57;;;;;;;18.60;17.10;;;8.00;46.50;;;;;;5132209;27;20449;-75
2022/03/04 16:57:24;;;;;;;27.00;16.80;;;7.90;46.80;;;;;;5132251;27;20445;-75
2022/03/04 16:59:52;;;;;;;16.60;15.10;;;7.80;47.00;;;;;;5132392;27;20445;-75
2022/03/04 17:02:20;;;;;;;19.20;17.60;;;7.70;47.30;;;;;;5132088;27;20968;-75
2022/03/04 17:04:47;;;;;;;18.50;16.90;;;7.70;47.70;;;;;;5131826;27;20903;-75
2022/03/04 17:07:14;;;;;;;16.40;15.10;;;7.60;47.70;;;;;;5131831;27;20445;-74
2022/03/04 17:09:42;;;;;;;18.53;16.87;;;7.50;47.40;;;;;;5131239;27;20477;-75
2022/03/04 17:12:10;;;;;;;17.70;16.23;;;7.50;47.50;;;;;;5131751;27;20493;-74
2022/03/04 17:14:37;;;;;;;18.00;16.10;;;7.50;47.30;;;;;;5131800;27;20453;-74
2022/03/04 17:17:07;;;;;;;16.90;15.50;;;7.40;47.20;;;;;;5132110;27;20855;-75
2022/03/04 17:19:34;;;;;;;14.90;13.90;;;7.40;47.00;;;;;;5132017;27;20445;-74
2022/03/04 17:22:02;;;;;;;16.80;15.50;;;7.40;47.30;;;;;;5131746;27;20498;-74
2022/03/04 17:24:29;;;;;;;15.13;13.73;;;7.30;47.50;;;;;;5131709;27;20810;-74
2022/03/04 17:26:56;;;;;;;15.23;14.03;;;7.30;48.10;;;;;;5131665;27;20712;-74
2022/03/04 17:29:23;;;;;;;14.67;13.30;;;7.20;48.40;;;;;;5131785;27;20937;-74
2022/03/04 17:31:49;;;;;;;14.20;13.00;;;7.10;48.60;;;;;;5131686;27;20844;-74
2022/03/04 17:34:18;;;;;;;13.17;12.03;;;7.10;48.90;;;;;;5131886;27;20460;-75
2022/03/04 17:36:45;;;;;;;14.90;13.60;;;7.00;49.00;;;;;;5131538;27;20441;-75
2022/03/04 17:39:12;;;;;;;12.67;11.50;;;6.90;49.40;;;;;;5131465;27;21001;-75
2022/03/04 17:41:39;;;;;;;14.50;13.50;;;6.80;49.70;;;;;;5131352;27;20444;-75
2022/03/04 17:44:06;;;;;;;14.80;13.50;;;6.70;49.80;;;;;;5131596;27;20456;-75
2022/03/04 17:46:32;;;;;;;14.67;13.47;;;6.60;50.30;;;;;;5131441;27;20453;-74
2022/03/04 17:48:59;;;;;;;14.20;12.90;;;6.50;50.40;;;;;;5131385;27;20447;-75
2022/03/04 17:51:32;;;;;;;11.47;10.37;;;6.40;50.50;;;;;;5131215;27;20499;-74
2022/03/04 17:54:00;;;;;;;13.97;12.97;;;6.30;50.60;;;;;;5131163;27;20460;-75
2022/03/04 17:56:27;;;;;;;13.10;12.07;;;6.20;50.90;;;;;;5131184;27;20448;-74
